createdAt,value
2022-12-12T00:01:46.889Z,30.05
2022-12-12T00:04:13.435Z,29.15
2022-12-12T00:06:40.425Z,29.52
2022-12-12T00:09:07.254Z,29.92
2022-12-12T00:11:33.764Z,32.40
2022-12-12T00:14:00.351Z,31.27
2022-12-12T00:16:26.960Z,33.60
2022-12-12T00:18:54.244Z,31.15
2022-12-12T00:21:24.017Z,30.13
2022-12-12T00:23:51.089Z,32.75
2022-12-12T00:26:23.133Z,30.90
2022-12-12T00:28:50.008Z,30.42
2022-12-12T00:31:17.746Z,30.50
2022-12-12T00:33:46.693Z,30.83
2022-12-12T00:36:13.641Z,30.38
2022-12-12T00:38:40.453Z,30.23
2022-12-12T00:41:06.978Z,29.77
2022-12-12T00:43:33.882Z,33.25
2022-12-12T00:46:01.591Z,30.75
2022-12-12T00:48:28.596Z,31.75
2022-12-12T00:50:56.388Z,30.30
2022-12-12T00:53:23.178Z,30.38
2022-12-12T00:55:58.933Z,31.38
2022-12-12T00:58:26.109Z,31.23
2022-12-12T01:00:53.085Z,35.40
2022-12-12T01:03:20.803Z,35.28
2022-12-12T01:05:48.253Z,35.47
2022-12-12T01:08:14.845Z,32.08
2022-12-12T01:10:41.679Z,33.40
2022-12-12T01:13:08.433Z,32.97
2022-12-12T01:15:34.920Z,33.53
2022-12-12T01:18:01.450Z,31.40
2022-12-12T01:20:29.155Z,31.58
2022-12-12T01:22:56.794Z,33.95
2022-12-12T01:25:23.706Z,32.35
2022-12-12T01:27:50.737Z,34.03
2022-12-12T01:30:21.465Z,34.28
2022-12-12T01:32:48.433Z,34.10
2022-12-12T01:35:15.267Z,35.55
2022-12-12T01:37:42.126Z,36.25
2022-12-12T01:40:14.814Z,34.53
2022-12-12T01:42:41.998Z,39.15
2022-12-12T01:45:28.965Z,36.08
2022-12-12T01:47:57.311Z,36.95
2022-12-12T01:50:27.056Z,36.33
2022-12-12T01:52:53.593Z,36.05
2022-12-12T01:55:23.079Z,35.28
2022-12-12T01:57:52.757Z,35.00
2022-12-12T02:00:21.081Z,33.92
2022-12-12T02:02:48.218Z,34.65
2022-12-12T02:05:23.810Z,35.20
2022-12-12T02:07:51.125Z,35.72
2022-12-12T02:10:17.902Z,35.88
2022-12-12T02:12:44.513Z,36.60
2022-12-12T02:15:12.153Z,36.55
2022-12-12T02:17:44.814Z,34.55
2022-12-12T02:20:30.121Z,33.92
2022-12-12T02:23:27.711Z,38.25
2022-12-12T02:26:12.805Z,39.90
2022-12-12T02:31:34.000Z,35.85
2022-12-12T02:34:24.595Z,39.05
2022-12-12T02:37:03.197Z,38.95
2022-12-12T02:39:37.353Z,40.17
2022-12-12T02:42:10.404Z,40.58
2022-12-12T02:44:53.001Z,41.63
2022-12-12T02:47:24.481Z,39.53
2022-12-12T02:49:56.635Z,43.20
2022-12-12T02:52:23.396Z,49.22
2022-12-12T02:54:49.925Z,51.95
2022-12-12T02:57:17.756Z,56.47
2022-12-12T02:59:50.412Z,49.53
2022-12-12T03:02:53.184Z,54.17
2022-12-12T03:06:14.004Z,57.78
2022-12-12T03:08:54.953Z,62.65
2022-12-12T03:11:45.641Z,56.53
2022-12-12T03:14:23.083Z,63.75
2022-12-12T03:17:08.729Z,65.60
2022-12-12T03:20:10.149Z,60.40
2022-12-12T03:22:45.525Z,61.53
2022-12-12T03:25:22.694Z,69.93
2022-12-12T03:27:57.723Z,74.00
2022-12-12T03:30:24.757Z,72.30
2022-12-12T03:33:04.080Z,65.00
2022-12-12T03:35:37.446Z,59.95
2022-12-12T03:38:14.387Z,73.72
2022-12-12T03:40:49.006Z,74.60
2022-12-12T03:43:18.109Z,80.97
2022-12-12T03:45:54.024Z,74.50
2022-12-12T03:48:29.336Z,73.25
2022-12-12T03:51:01.353Z,87.60
2022-12-12T03:53:38.501Z,90.57
2022-12-12T03:56:16.086Z,95.95
2022-12-12T03:58:50.222Z,75.50
2022-12-12T04:01:20.186Z,94.53
2022-12-12T04:04:06.060Z,94.50
2022-12-12T04:06:39.242Z,88.35
2022-12-12T04:09:30.934Z,86.03
2022-12-12T04:12:34.644Z,83.22
2022-12-12T04:15:05.697Z,101.55
2022-12-12T04:17:42.579Z,86.90
2022-12-12T04:20:33.764Z,85.97
2022-12-12T04:23:24.425Z,97.53
2022-12-12T04:26:31.829Z,93.07
2022-12-12T04:29:13.318Z,104.90
2022-12-12T04:31:46.371Z,114.07
2022-12-12T04:34:25.877Z,121.57
2022-12-12T04:36:53.274Z,124.82
2022-12-12T04:39:21.768Z,125.03
2022-12-12T04:41:50.977Z,129.93
2022-12-12T04:44:20.513Z,129.18
2022-12-12T04:46:52.022Z,125.28
2022-12-12T04:49:24.666Z,128.95
2022-12-12T04:51:56.499Z,119.80
2022-12-12T04:54:36.800Z,127.65
2022-12-12T04:57:07.658Z,116.43
2022-12-12T04:59:34.787Z,114.65
2022-12-12T05:02:24.712Z,113.57
2022-12-12T05:04:53.836Z,114.32
2022-12-12T05:07:48.323Z,108.75
2022-12-12T05:10:17.661Z,189.88
2022-12-12T05:12:47.681Z,113.25
2022-12-12T05:15:16.543Z,114.38
2022-12-12T05:17:47.511Z,118.47
2022-12-12T05:20:15.627Z,122.43
2022-12-12T05:22:42.237Z,130.20
2022-12-12T05:25:09.395Z,133.00
2022-12-12T05:27:36.358Z,128.73
2022-12-12T05:30:03.080Z,136.88
2022-12-12T05:32:29.665Z,139.75
2022-12-12T05:34:56.164Z,139.23
2022-12-12T05:37:22.852Z,152.57
2022-12-12T05:39:49.417Z,144.70
2022-12-12T05:42:15.996Z,152.45
2022-12-12T05:44:42.813Z,156.95
2022-12-12T05:47:09.354Z,155.25
2022-12-12T05:49:35.916Z,159.32
2022-12-12T05:52:02.478Z,156.68
2022-12-12T05:54:29.090Z,156.27
2022-12-12T05:56:55.586Z,156.25
2022-12-12T05:59:22.154Z,158.68
2022-12-12T06:01:48.681Z,161.77
2022-12-12T06:04:15.495Z,156.30
2022-12-12T06:06:42.173Z,160.23
2022-12-12T06:09:08.676Z,160.60
2022-12-12T06:11:35.158Z,159.68
2022-12-12T06:14:01.645Z,160.18
2022-12-12T06:16:28.119Z,164.32
2022-12-12T06:18:55.708Z,165.07
2022-12-12T06:21:23.242Z,160.88
2022-12-12T06:23:50.070Z,167.15
2022-12-12T06:26:19.444Z,170.90
2022-12-12T06:28:46.722Z,168.80
2022-12-12T06:31:14.914Z,166.48
2022-12-12T06:33:42.721Z,165.70
2022-12-12T06:36:12.775Z,162.82
2022-12-12T06:38:40.483Z,162.23
2022-12-12T06:41:12.516Z,164.68
2022-12-12T06:43:40.069Z,169.07
2022-12-12T06:46:08.789Z,162.75
2022-12-12T06:48:36.438Z,163.77
2022-12-12T06:51:08.145Z,162.38
2022-12-12T06:53:37.196Z,162.50
2022-12-12T06:56:13.553Z,160.95
2022-12-12T06:58:40.331Z,161.75
2022-12-12T07:01:07.455Z,158.07
2022-12-12T07:03:34.437Z,156.35
2022-12-12T07:06:01.377Z,146.13
2022-12-12T07:08:30.956Z,154.18
2022-12-12T07:11:04.147Z,155.32
2022-12-12T07:13:31.285Z,159.40
2022-12-12T07:15:58.071Z,159.20
2022-12-12T07:18:24.725Z,161.77
2022-12-12T07:20:51.261Z,169.65
2022-12-12T07:23:18.331Z,168.65
2022-12-12T07:25:44.901Z,168.88
2022-12-12T07:28:13.325Z,165.90
2022-12-12T07:30:42.113Z,160.52
2022-12-12T07:33:09.577Z,161.80
2022-12-12T07:35:36.249Z,163.10
2022-12-12T07:38:04.357Z,161.98
2022-12-12T07:40:31.811Z,162.18
2022-12-12T07:42:59.522Z,162.95
2022-12-12T07:45:26.267Z,158.93
2022-12-12T07:47:53.628Z,153.93
2022-12-12T07:50:20.764Z,152.10
2022-12-12T07:52:47.313Z,152.23
2022-12-12T07:55:14.229Z,132.00
2022-12-12T07:57:41.457Z,128.20
2022-12-12T08:00:10.188Z,124.95
2022-12-12T08:02:36.714Z,107.68
2022-12-12T08:05:03.317Z,90.60
2022-12-12T08:07:29.869Z,96.68
2022-12-12T08:09:56.401Z,104.80
2022-12-12T08:12:23.517Z,94.18
2022-12-12T08:14:50.093Z,71.90
2022-12-12T08:17:16.619Z,63.80
2022-12-12T08:19:43.132Z,52.05
2022-12-12T08:22:09.674Z,47.20
2022-12-12T08:24:36.182Z,38.70
2022-12-12T08:27:02.739Z,33.28
2022-12-12T08:29:29.356Z,32.95
2022-12-12T08:31:55.940Z,27.83
2022-12-12T08:34:22.580Z,26.48
2022-12-12T08:36:49.300Z,25.98
2022-12-12T08:39:17.081Z,25.77
2022-12-12T08:41:50.117Z,25.83
2022-12-12T08:44:19.928Z,25.88
2022-12-12T08:46:47.095Z,26.00
2022-12-12T08:49:13.802Z,24.88
2022-12-12T08:51:41.340Z,25.17
2022-12-12T08:54:10.025Z,23.83
2022-12-12T08:56:36.616Z,24.13
2022-12-12T08:59:03.301Z,25.23
2022-12-12T09:01:29.859Z,25.25
2022-12-12T09:03:57.632Z,25.17
2022-12-12T09:06:26.037Z,24.77
2022-12-12T09:08:53.493Z,24.10
2022-12-12T09:11:20.017Z,25.55
2022-12-12T09:13:46.849Z,24.30
2022-12-12T09:16:13.540Z,22.75
2022-12-12T09:18:47.735Z,24.67
2022-12-12T09:21:15.128Z,25.25
2022-12-12T09:23:41.685Z,25.55
2022-12-12T09:26:09.010Z,25.33
2022-12-12T09:28:36.413Z,25.23
2022-12-12T09:31:07.960Z,26.60
2022-12-12T09:33:35.380Z,26.45
2022-12-12T09:36:05.138Z,27.35
2022-12-12T09:38:32.130Z,26.75
2022-12-12T09:41:02.739Z,27.27
2022-12-12T09:43:36.877Z,26.33
2022-12-12T09:46:14.043Z,26.88
2022-12-12T09:48:44.577Z,26.40
2022-12-12T09:51:13.654Z,26.08
2022-12-12T09:53:43.623Z,27.70
2022-12-12T09:56:19.481Z,26.48
2022-12-12T09:59:37.346Z,25.95
2022-12-12T10:02:09.550Z,26.10
2022-12-12T10:04:47.874Z,28.00
2022-12-12T10:07:24.022Z,26.85
2022-12-12T10:10:03.700Z,28.98
2022-12-12T10:12:31.844Z,28.85
2022-12-12T10:15:07.828Z,30.40
2022-12-12T10:17:42.892Z,27.50
2022-12-12T10:20:27.650Z,27.17
2022-12-12T10:23:12.880Z,28.13
2022-12-12T10:25:58.737Z,26.70
2022-12-12T10:28:27.957Z,27.75
2022-12-12T10:31:22.240Z,29.77
2022-12-12T10:33:57.842Z,29.42
2022-12-12T10:36:46.110Z,29.10
2022-12-12T10:39:36.789Z,26.70
2022-12-12T10:42:30.832Z,28.83
2022-12-12T10:45:13.994Z,30.05
2022-12-12T10:47:41.218Z,26.45
2022-12-12T10:50:13.286Z,27.58
2022-12-12T10:52:39.980Z,27.13
2022-12-12T10:55:21.145Z,26.20
2022-12-12T10:57:47.699Z,26.45
2022-12-12T11:00:39.692Z,27.02
2022-12-12T11:03:29.350Z,25.00
2022-12-12T11:05:57.104Z,24.92
2022-12-12T11:08:30.236Z,26.10
2022-12-12T11:11:01.308Z,25.48
2022-12-12T11:13:28.164Z,26.50
2022-12-12T11:16:13.056Z,26.23
2022-12-12T11:18:40.240Z,28.85
2022-12-12T11:21:10.874Z,28.92
2022-12-12T11:23:47.601Z,30.98
2022-12-12T11:26:18.943Z,31.33
2022-12-12T11:28:51.927Z,29.90
2022-12-12T11:31:23.171Z,26.98
2022-12-12T11:33:57.211Z,26.63
2022-12-12T11:36:31.976Z,26.73
2022-12-12T11:39:00.504Z,25.80
2022-12-12T11:41:27.117Z,24.65
2022-12-12T11:43:58.102Z,25.33
2022-12-12T11:46:28.813Z,25.17
2022-12-12T11:48:59.304Z,26.23
2022-12-12T11:51:44.096Z,26.52
2022-12-12T11:54:29.307Z,25.52
2022-12-12T11:57:14.766Z,25.40
2022-12-12T11:59:59.840Z,24.95
2022-12-12T12:05:23.752Z,22.52
2022-12-12T12:08:28.866Z,22.95
2022-12-12T12:11:17.222Z,24.45
2022-12-12T12:13:58.993Z,24.38
2022-12-12T12:16:46.852Z,23.27
2022-12-12T12:19:30.203Z,23.63
2022-12-12T12:21:56.711Z,24.45
2022-12-12T12:24:44.972Z,24.30
2022-12-12T12:27:33.336Z,24.58
2022-12-12T12:30:17.217Z,24.67
2022-12-12T12:32:46.438Z,24.63
2022-12-12T12:35:28.869Z,24.13
2022-12-12T12:38:01.149Z,26.40
2022-12-12T12:41:09.252Z,25.08
2022-12-12T12:43:47.789Z,26.45
2022-12-12T12:46:32.354Z,30.60
2022-12-12T12:49:27.393Z,29.77
2022-12-12T12:51:59.194Z,29.15
2022-12-12T12:54:33.028Z,32.90
2022-12-12T12:57:27.960Z,32.33
2022-12-12T13:00:00.276Z,32.33
2022-12-12T13:02:37.311Z,31.20
2022-12-12T13:05:18.993Z,32.53
2022-12-12T13:07:52.269Z,30.48
2022-12-12T13:10:25.102Z,30.83
2022-12-12T13:12:59.806Z,32.83
2022-12-12T13:18:04.649Z,33.78
2022-12-12T13:20:37.996Z,33.08
2022-12-12T13:23:07.509Z,31.13
2022-12-12T13:26:24.741Z,30.67
2022-12-12T13:29:00.447Z,28.60
2022-12-12T13:31:30.052Z,27.63
2022-12-12T13:34:04.155Z,27.75
2022-12-12T13:36:38.681Z,29.92
2022-12-12T13:39:07.273Z,28.48
2022-12-12T13:41:53.593Z,29.17
2022-12-12T13:44:40.648Z,28.17
2022-12-12T13:47:35.217Z,27.25
2022-12-12T13:50:10.776Z,27.23
2022-12-12T13:52:42.451Z,27.95
2022-12-12T13:55:12.625Z,26.83
2022-12-12T13:57:59.867Z,26.55
2022-12-12T14:00:35.324Z,26.10
2022-12-12T14:03:10.754Z,25.52
2022-12-12T14:05:48.344Z,26.00
2022-12-12T14:08:14.886Z,25.60
2022-12-12T14:10:45.687Z,24.23
2022-12-12T14:13:40.264Z,25.45
2022-12-12T14:16:19.876Z,24.73
2022-12-12T14:18:49.229Z,26.15
2022-12-12T14:21:18.453Z,25.65
2022-12-12T14:23:53.201Z,26.08
2022-12-12T14:29:17.264Z,26.73
2022-12-12T14:32:03.893Z,26.77
2022-12-12T14:34:45.694Z,26.52
2022-12-12T14:37:51.821Z,27.20
2022-12-12T14:40:21.477Z,28.77
2022-12-12T14:43:15.692Z,29.40
2022-12-12T14:45:40.245Z,28.88
2022-12-12T14:48:29.386Z,28.95
2022-12-12T14:51:09.129Z,30.13
2022-12-12T14:53:38.571Z,30.35
2022-12-12T14:56:25.101Z,33.55
2022-12-12T14:58:59.906Z,36.55
2022-12-12T15:01:29.245Z,40.97
2022-12-12T15:03:59.028Z,42.20
2022-12-12T15:06:39.272Z,42.55
2022-12-12T15:09:24.683Z,43.80
2022-12-12T15:11:53.704Z,44.33
2022-12-12T15:14:25.792Z,47.38
2022-12-12T15:16:58.337Z,47.47
2022-12-12T15:19:34.310Z,47.05
2022-12-12T15:22:00.965Z,47.95
2022-12-12T15:24:37.151Z,45.55
2022-12-12T15:27:05.813Z,47.25
2022-12-12T15:29:33.457Z,45.28
2022-12-12T15:32:03.950Z,45.83
2022-12-12T15:34:34.895Z,46.47
2022-12-12T15:37:17.625Z,46.42
2022-12-12T15:39:45.215Z,45.45
2022-12-12T15:42:14.465Z,44.70
2022-12-12T15:44:46.240Z,41.40
2022-12-12T15:47:15.893Z,41.38
2022-12-12T15:49:44.417Z,42.08
2022-12-12T15:52:21.258Z,44.10
2022-12-12T15:54:50.809Z,42.50
2022-12-12T15:57:20.194Z,41.72
2022-12-12T15:59:53.680Z,43.33
2022-12-12T16:02:25.733Z,43.20
2022-12-12T16:05:20.590Z,42.88
2022-12-12T16:07:47.134Z,42.50
2022-12-12T16:10:13.743Z,43.72
2022-12-12T16:12:57.245Z,43.70
2022-12-12T16:15:33.694Z,43.10
2022-12-12T16:18:27.940Z,43.15
2022-12-12T16:20:56.814Z,41.95
2022-12-12T16:23:28.122Z,42.97
2022-12-12T16:25:54.987Z,44.33
2022-12-12T16:28:27.885Z,43.60
2022-12-12T16:31:00.987Z,43.78
2022-12-12T16:33:37.542Z,44.13
2022-12-12T16:36:10.366Z,46.05
2022-12-12T16:38:40.125Z,45.65
2022-12-12T16:41:13.427Z,45.33
2022-12-12T16:43:40.672Z,51.05
2022-12-12T16:46:18.291Z,48.45
2022-12-12T16:48:44.866Z,51.22
2022-12-12T16:51:16.285Z,49.35
2022-12-12T16:53:42.826Z,47.97
2022-12-12T16:56:12.250Z,47.20
2022-12-12T16:58:39.112Z,46.60
2022-12-12T17:01:06.357Z,47.25
2022-12-12T17:03:33.041Z,48.60
2022-12-12T17:06:00.514Z,49.10
2022-12-12T17:08:28.082Z,47.10
2022-12-12T17:11:10.509Z,46.72
2022-12-12T17:13:41.056Z,48.72
2022-12-12T17:16:07.709Z,44.92
2022-12-12T17:18:34.286Z,42.85
2022-12-12T17:21:00.832Z,43.28
2022-12-12T17:23:27.481Z,42.97
2022-12-12T17:25:59.083Z,41.92
2022-12-12T17:28:30.096Z,42.22
2022-12-12T17:30:56.597Z,42.63
2022-12-12T17:33:23.273Z,42.42
2022-12-12T17:36:01.195Z,42.45
2022-12-12T17:38:28.211Z,40.30
2022-12-12T17:40:56.701Z,42.25
2022-12-12T17:43:25.077Z,40.85
2022-12-12T17:46:05.835Z,41.55
2022-12-12T17:48:34.787Z,42.15
2022-12-12T17:51:04.783Z,42.22
2022-12-12T17:53:36.704Z,41.25
2022-12-12T17:56:08.735Z,41.13
2022-12-12T17:58:37.231Z,43.80
2022-12-12T18:01:22.911Z,41.47
2022-12-12T18:03:50.392Z,45.75
2022-12-12T18:06:18.369Z,43.58
2022-12-12T18:08:45.719Z,41.30
2022-12-12T18:11:15.532Z,42.65
2022-12-12T18:13:42.909Z,43.67
2022-12-12T18:16:12.744Z,44.85
2022-12-12T18:18:40.207Z,45.65
2022-12-12T18:21:43.386Z,46.40
2022-12-12T18:24:06.868Z,45.53
2022-12-12T18:26:33.621Z,45.75
2022-12-12T18:29:02.886Z,44.92
2022-12-12T18:31:30.200Z,45.47
2022-12-12T18:33:57.617Z,44.85
2022-12-12T18:36:27.441Z,45.72
2022-12-12T18:38:55.960Z,46.85
2022-12-12T18:41:24.492Z,46.00
2022-12-12T18:43:51.059Z,46.05
2022-12-12T18:46:20.568Z,46.40
2022-12-12T18:48:48.725Z,47.63
2022-12-12T18:51:18.513Z,46.40
2022-12-12T18:53:45.519Z,46.47
2022-12-12T18:56:21.035Z,45.58
2022-12-12T18:58:48.929Z,47.28
2022-12-12T19:01:18.786Z,45.80
2022-12-12T19:03:48.900Z,46.28
2022-12-12T19:06:18.373Z,47.38
2022-12-12T19:08:45.066Z,45.25
2022-12-12T19:11:13.319Z,44.40
2022-12-12T19:13:40.097Z,45.20
2022-12-12T19:16:16.528Z,44.10
2022-12-12T19:18:44.277Z,43.92
2022-12-12T19:21:14.593Z,43.83
2022-12-12T19:23:41.485Z,41.75
2022-12-12T19:26:12.024Z,41.45
2022-12-12T19:28:38.911Z,43.90
2022-12-12T19:31:11.666Z,42.75
2022-12-12T19:33:38.801Z,40.92
2022-12-12T19:36:20.042Z,39.88
2022-12-12T19:38:47.589Z,39.20
2022-12-12T19:41:16.832Z,40.95
2022-12-12T19:43:45.087Z,41.40
2022-12-12T19:46:17.486Z,41.08
2022-12-12T19:48:44.577Z,41.13
2022-12-12T19:51:12.519Z,42.67
2022-12-12T19:53:42.057Z,37.88
2022-12-12T19:56:11.359Z,37.60
2022-12-12T19:58:38.903Z,34.03
2022-12-12T20:01:10.869Z,33.03
2022-12-12T20:03:37.950Z,37.55
2022-12-12T20:06:06.998Z,43.20
2022-12-12T20:08:35.677Z,39.53
2022-12-12T20:11:06.642Z,36.78
2022-12-12T20:13:33.741Z,37.45
2022-12-12T20:16:11.252Z,37.03
2022-12-12T20:18:38.417Z,36.13
2022-12-12T20:21:05.692Z,33.25
2022-12-12T20:23:35.293Z,34.95
2022-12-12T20:26:06.544Z,33.33
2022-12-12T20:28:33.961Z,32.42
2022-12-12T20:31:05.765Z,35.10
2022-12-12T20:33:32.731Z,35.20
2022-12-12T20:36:07.823Z,32.38
2022-12-12T20:38:36.120Z,32.22
2022-12-12T20:41:09.811Z,32.78
2022-12-12T20:43:36.580Z,32.53
2022-12-12T20:46:18.527Z,31.48
2022-12-12T20:48:46.191Z,33.22
2022-12-12T20:51:53.000Z,33.13
2022-12-12T20:54:06.365Z,33.25
2022-12-12T20:56:33.505Z,33.45
2022-12-12T20:59:02.708Z,32.40
2022-12-12T21:01:32.012Z,33.92
2022-12-12T21:03:59.926Z,33.08
2022-12-12T21:06:29.283Z,34.88
2022-12-12T21:08:56.105Z,34.85
2022-12-12T21:11:25.508Z,34.47
2022-12-12T21:13:53.472Z,37.47
2022-12-12T21:16:23.498Z,35.08
2022-12-12T21:18:51.962Z,37.67
2022-12-12T21:21:19.095Z,38.90
2022-12-12T21:23:47.186Z,39.35
2022-12-12T21:26:25.201Z,37.88
2022-12-12T21:28:55.700Z,37.05
2022-12-12T21:31:28.286Z,35.75
2022-12-12T21:33:55.046Z,34.75
2022-12-12T21:36:23.405Z,35.63
2022-12-12T21:38:51.647Z,34.60
2022-12-12T21:41:20.269Z,34.55
2022-12-12T21:43:48.845Z,33.63
2022-12-12T21:46:20.857Z,34.03
2022-12-12T21:49:07.999Z,33.17
2022-12-12T21:51:35.341Z,37.13
2022-12-12T21:54:04.093Z,38.00
2022-12-12T21:56:31.092Z,35.65
2022-12-12T21:58:58.558Z,35.97
2022-12-12T22:01:25.760Z,34.67
2022-12-12T22:03:53.537Z,35.15
2022-12-12T22:06:23.326Z,34.00
2022-12-12T22:08:50.336Z,36.90
2022-12-12T22:11:34.349Z,37.78
2022-12-12T22:14:06.366Z,35.35
2022-12-12T22:16:33.831Z,39.08
2022-12-12T22:19:06.298Z,36.83
2022-12-12T22:21:33.661Z,36.67
2022-12-12T22:24:00.969Z,39.03
2022-12-12T22:26:30.229Z,43.30
2022-12-12T22:28:59.555Z,46.60
2022-12-12T22:31:28.805Z,48.88
2022-12-12T22:34:04.107Z,45.85
2022-12-12T22:36:32.941Z,53.00
2022-12-12T22:39:01.200Z,59.03
2022-12-12T22:41:29.387Z,56.85
2022-12-12T22:44:01.084Z,55.47
2022-12-12T22:46:28.927Z,54.83
2022-12-12T22:48:57.468Z,47.70
2022-12-12T22:51:26.897Z,45.38
2022-12-12T22:53:56.605Z,44.03
2022-12-12T22:56:23.707Z,45.13
2022-12-12T22:58:51.656Z,43.97
2022-12-12T23:01:20.772Z,47.83
2022-12-12T23:03:48.248Z,40.70
2022-12-12T23:06:14.697Z,45.78
2022-12-12T23:08:42.585Z,55.65
2022-12-12T23:11:16.016Z,55.50
2022-12-12T23:13:44.357Z,49.13
2022-12-12T23:16:16.404Z,57.05
2022-12-12T23:18:43.278Z,58.67
2022-12-12T23:21:16.733Z,52.58
2022-12-12T23:23:44.173Z,51.47
2022-12-12T23:26:14.144Z,48.13
2022-12-12T23:28:41.575Z,50.00
2022-12-12T23:31:10.658Z,54.15
2022-12-12T23:33:37.345Z,49.33
2022-12-12T23:36:05.453Z,47.85
2022-12-12T23:38:31.938Z,47.40
2022-12-12T23:41:02.660Z,45.47
2022-12-12T23:43:29.207Z,44.50
2022-12-12T23:45:55.759Z,45.97
2022-12-12T23:48:22.284Z,42.65
2022-12-12T23:50:48.840Z,42.92
2022-12-12T23:53:15.644Z,41.95
2022-12-12T23:55:42.153Z,42.97
2022-12-12T23:58:08.620Z,42.92
